Frei Paulo, Brazil
Current Conditions -  °F | °C
As of 12:00 PM on Friday 24 Oct 2014 (Local Time) from SBAR Reporting Station
Broken Clouds Broken Clouds  
Wind Chill: 82°   Ceiling: 1700
Heat Index: 85°   Visibility: 6mi
Dew Point: 66°   Wind: 14mph
Humidity: 58%   Direction: 150°SSE
Pressure: 29.97"   Gusts: NA
Location:  10.54°S, 37.53°W
Report Text: SBAR 241500Z 15012KT 9999 BKN017 28/19 Q1015
Loading
Personal Weather Stations






























Interactive Weather Map
Tropical Storm Tracking
New forecast layout! Learn more

10-Day Weather Forecast

Advertisements
Track Severe Weather on mobile